sensor_id;sensor_type;location;lat;lon;timestamp;P1;durP1;ratioP1;P2;durP2;ratioP2
40204;SDS011;26963;42.666;23.366;2024-01-11T00:00:15;67.13;;;40.23;;
40204;SDS011;26963;42.666;23.366;2024-01-11T00:02:41;65.63;;;35.17;;
40204;SDS011;26963;42.666;23.366;2024-01-11T00:05:07;68.80;;;37.07;;
40204;SDS011;26963;42.666;23.366;2024-01-11T00:07:33;64.30;;;35.60;;
40204;SDS011;26963;42.666;23.366;2024-01-11T00:09:58;59.73;;;34.70;;
40204;SDS011;26963;42.666;23.366;2024-01-11T00:12:26;64.13;;;36.93;;
40204;SDS011;26963;42.666;23.366;2024-01-11T00:14:52;61.90;;;36.17;;
40204;SDS011;26963;42.666;23.366;2024-01-11T00:17:18;60.67;;;34.47;;
40204;SDS011;26963;42.666;23.366;2024-01-11T00:19:43;60.57;;;36.43;;
40204;SDS011;26963;42.666;23.366;2024-01-11T00:22:09;58.70;;;33.30;;
40204;SDS011;26963;42.666;23.366;2024-01-11T00:24:35;60.97;;;33.40;;
40204;SDS011;26963;42.666;23.366;2024-01-11T00:27:00;56.07;;;33.57;;
40204;SDS011;26963;42.666;23.366;2024-01-11T00:29:26;62.37;;;32.70;;
40204;SDS011;26963;42.666;23.366;2024-01-11T00:31:53;64.43;;;34.10;;
40204;SDS011;26963;42.666;23.366;2024-01-11T00:34:19;57.60;;;31.77;;
40204;SDS011;26963;42.666;23.366;2024-01-11T00:36:47;47.57;;;28.53;;
40204;SDS011;26963;42.666;23.366;2024-01-11T00:39:12;53.77;;;33.43;;
40204;SDS011;26963;42.666;23.366;2024-01-11T00:41:38;60.10;;;33.37;;
40204;SDS011;26963;42.666;23.366;2024-01-11T00:44:04;60.80;;;33.03;;
40204;SDS011;26963;42.666;23.366;2024-01-11T00:46:29;57.20;;;30.83;;
40204;SDS011;26963;42.666;23.366;2024-01-11T00:48:55;45.07;;;26.03;;
40204;SDS011;26963;42.666;23.366;2024-01-11T00:51:20;44.13;;;27.20;;
40204;SDS011;26963;42.666;23.366;2024-01-11T00:53:46;54.03;;;31.67;;
40204;SDS011;26963;42.666;23.366;2024-01-11T00:56:18;54.17;;;29.93;;
40204;SDS011;26963;42.666;23.366;2024-01-11T00:58:45;51.50;;;31.00;;
40204;SDS011;26963;42.666;23.366;2024-01-11T01:01:11;51.27;;;28.43;;
40204;SDS011;26963;42.666;23.366;2024-01-11T01:03:37;53.47;;;30.00;;
40204;SDS011;26963;42.666;23.366;2024-01-11T01:06:03;49.50;;;29.33;;
40204;SDS011;26963;42.666;23.366;2024-01-11T01:08:30;47.70;;;26.93;;
40204;SDS011;26963;42.666;23.366;2024-01-11T01:10:55;42.27;;;26.37;;
40204;SDS011;26963;42.666;23.366;2024-01-11T01:13:21;51.63;;;28.77;;
40204;SDS011;26963;42.666;23.366;2024-01-11T01:15:47;51.30;;;27.53;;
40204;SDS011;26963;42.666;23.366;2024-01-11T01:18:12;48.90;;;29.30;;
40204;SDS011;26963;42.666;23.366;2024-01-11T01:20:38;49.57;;;28.67;;
40204;SDS011;26963;42.666;23.366;2024-01-11T01:23:03;48.60;;;29.30;;
40204;SDS011;26963;42.666;23.366;2024-01-11T01:25:29;48.17;;;28.50;;
40204;SDS011;26963;42.666;23.366;2024-01-11T01:27:55;51.50;;;27.40;;
40204;SDS011;26963;42.666;23.366;2024-01-11T01:30:21;45.57;;;25.00;;
40204;SDS011;26963;42.666;23.366;2024-01-11T01:32:48;44.03;;;25.70;;
40204;SDS011;26963;42.666;23.366;2024-01-11T01:35:14;43.53;;;24.37;;
40204;SDS011;26963;42.666;23.366;2024-01-11T01:37:39;45.53;;;25.50;;
40204;SDS011;26963;42.666;23.366;2024-01-11T01:40:05;52.73;;;31.27;;
40204;SDS011;26963;42.666;23.366;2024-01-11T01:42:32;59.10;;;32.13;;
40204;SDS011;26963;42.666;23.366;2024-01-11T01:44:58;50.37;;;27.97;;
40204;SDS011;26963;42.666;23.366;2024-01-11T01:47:24;60.53;;;28.97;;
40204;SDS011;26963;42.666;23.366;2024-01-11T01:49:51;50.33;;;29.13;;
40204;SDS011;26963;42.666;23.366;2024-01-11T01:52:18;49.07;;;26.87;;
40204;SDS011;26963;42.666;23.366;2024-01-11T01:54:45;45.43;;;24.80;;
40204;SDS011;26963;42.666;23.366;2024-01-11T01:57:12;43.53;;;23.60;;
40204;SDS011;26963;42.666;23.366;2024-01-11T01:59:39;38.07;;;22.10;;
40204;SDS011;26963;42.666;23.366;2024-01-11T02:02:05;43.67;;;23.97;;
40204;SDS011;26963;42.666;23.366;2024-01-11T02:04:31;41.43;;;23.97;;
40204;SDS011;26963;42.666;23.366;2024-01-11T02:06:57;44.23;;;25.53;;
40204;SDS011;26963;42.666;23.366;2024-01-11T02:09:24;41.13;;;23.87;;
40204;SDS011;26963;42.666;23.366;2024-01-11T02:11:51;39.87;;;22.60;;
40204;SDS011;26963;42.666;23.366;2024-01-11T02:14:18;41.40;;;24.27;;
40204;SDS011;26963;42.666;23.366;2024-01-11T02:16:44;45.43;;;24.67;;
40204;SDS011;26963;42.666;23.366;2024-01-11T02:19:11;49.70;;;26.97;;
40204;SDS011;26963;42.666;23.366;2024-01-11T02:21:40;47.80;;;25.57;;
40204;SDS011;26963;42.666;23.366;2024-01-11T02:24:07;50.90;;;28.20;;
40204;SDS011;26963;42.666;23.366;2024-01-11T02:26:33;50.27;;;26.90;;
40204;SDS011;26963;42.666;23.366;2024-01-11T02:28:59;55.23;;;27.33;;
40204;SDS011;26963;42.666;23.366;2024-01-11T02:31:25;51.03;;;27.63;;
40204;SDS011;26963;42.666;23.366;2024-01-11T02:33:54;50.77;;;27.17;;
40204;SDS011;26963;42.666;23.366;2024-01-11T02:36:21;51.47;;;28.20;;
40204;SDS011;26963;42.666;23.366;2024-01-11T02:38:47;56.70;;;28.53;;
40204;SDS011;26963;42.666;23.366;2024-01-11T02:41:14;48.47;;;27.00;;
40204;SDS011;26963;42.666;23.366;2024-01-11T02:43:48;47.37;;;26.20;;
40204;SDS011;26963;42.666;23.366;2024-01-11T02:46:17;48.88;;;26.40;;
40204;SDS011;26963;42.666;23.366;2024-01-11T02:48:42;50.70;;;27.43;;
40204;SDS011;26963;42.666;23.366;2024-01-11T02:51:08;47.50;;;25.07;;
40204;SDS011;26963;42.666;23.366;2024-01-11T02:53:34;40.67;;;24.03;;
40204;SDS011;26963;42.666;23.366;2024-01-11T02:56:00;40.87;;;23.87;;
40204;SDS011;26963;42.666;23.366;2024-01-11T02:58:27;44.63;;;24.70;;
40204;SDS011;26963;42.666;23.366;2024-01-11T03:00:52;39.17;;;24.03;;
40204;SDS011;26963;42.666;23.366;2024-01-11T03:03:18;43.90;;;24.60;;
40204;SDS011;26963;42.666;23.366;2024-01-11T03:05:43;45.03;;;25.57;;
40204;SDS011;26963;42.666;23.366;2024-01-11T03:08:09;43.83;;;24.40;;
40204;SDS011;26963;42.666;23.366;2024-01-11T03:10:37;46.67;;;24.50;;
40204;SDS011;26963;42.666;23.366;2024-01-11T03:13:03;40.90;;;23.77;;
40204;SDS011;26963;42.666;23.366;2024-01-11T03:15:30;42.53;;;23.53;;
40204;SDS011;26963;42.666;23.366;2024-01-11T03:17:55;42.63;;;23.57;;
40204;SDS011;26963;42.666;23.366;2024-01-11T03:20:21;44.07;;;22.83;;
40204;SDS011;26963;42.666;23.366;2024-01-11T03:22:50;40.87;;;22.77;;
40204;SDS011;26963;42.666;23.366;2024-01-11T03:25:17;43.00;;;22.23;;
40204;SDS011;26963;42.666;23.366;2024-01-11T03:27:42;38.47;;;21.83;;
40204;SDS011;26963;42.666;23.366;2024-01-11T03:30:08;39.33;;;22.13;;
40204;SDS011;26963;42.666;23.366;2024-01-11T03:32:34;31.47;;;19.40;;
40204;SDS011;26963;42.666;23.366;2024-01-11T03:34:59;35.87;;;20.83;;
40204;SDS011;26963;42.666;23.366;2024-01-11T03:37:25;41.90;;;21.67;;
40204;SDS011;26963;42.666;23.366;2024-01-11T03:39:50;38.33;;;22.20;;
40204;SDS011;26963;42.666;23.366;2024-01-11T03:42:16;40.30;;;22.03;;
40204;SDS011;26963;42.666;23.366;2024-01-11T03:44:42;32.23;;;20.27;;
40204;SDS011;26963;42.666;23.366;2024-01-11T03:47:07;33.83;;;19.93;;
40204;SDS011;26963;42.666;23.366;2024-01-11T03:49:33;32.13;;;18.83;;
40204;SDS011;26963;42.666;23.366;2024-01-11T03:51:59;33.70;;;19.90;;
40204;SDS011;26963;42.666;23.366;2024-01-11T03:54:24;34.83;;;19.97;;
40204;SDS011;26963;42.666;23.366;2024-01-11T03:56:50;33.70;;;20.00;;
40204;SDS011;26963;42.666;23.366;2024-01-11T03:59:16;31.83;;;19.10;;
40204;SDS011;26963;42.666;23.366;2024-01-11T04:01:42;38.60;;;21.13;;
40204;SDS011;26963;42.666;23.366;2024-01-11T04:04:07;36.20;;;21.97;;
40204;SDS011;26963;42.666;23.366;2024-01-11T04:06:33;36.50;;;20.57;;
40204;SDS011;26963;42.666;23.366;2024-01-11T04:08:59;36.10;;;21.40;;
40204;SDS011;26963;42.666;23.366;2024-01-11T04:11:27;40.83;;;22.67;;
40204;SDS011;26963;42.666;23.366;2024-01-11T04:13:53;39.57;;;21.30;;
40204;SDS011;26963;42.666;23.366;2024-01-11T04:16:19;35.63;;;21.17;;
40204;SDS011;26963;42.666;23.366;2024-01-11T04:18:46;33.70;;;19.73;;
40204;SDS011;26963;42.666;23.366;2024-01-11T04:21:24;32.90;;;18.57;;
40204;SDS011;26963;42.666;23.366;2024-01-11T04:23:54;31.77;;;17.63;;
40204;SDS011;26963;42.666;23.366;2024-01-11T04:26:20;30.80;;;17.73;;
40204;SDS011;26963;42.666;23.366;2024-01-11T04:28:46;32.63;;;18.27;;
40204;SDS011;26963;42.666;23.366;2024-01-11T04:31:15;33.10;;;19.13;;
40204;SDS011;26963;42.666;23.366;2024-01-11T04:33:44;32.10;;;18.03;;
40204;SDS011;26963;42.666;23.366;2024-01-11T04:36:11;31.50;;;17.83;;
40204;SDS011;26963;42.666;23.366;2024-01-11T04:38:37;29.13;;;18.13;;
40204;SDS011;26963;42.666;23.366;2024-01-11T04:41:09;31.13;;;18.13;;
40204;SDS011;26963;42.666;23.366;2024-01-11T04:43:39;25.20;;;16.27;;
40204;SDS011;26963;42.666;23.366;2024-01-11T04:46:26;35.10;;;18.33;;
40204;SDS011;26963;42.666;23.366;2024-01-11T04:48:51;30.87;;;18.93;;
40204;SDS011;26963;42.666;23.366;2024-01-11T04:51:17;33.67;;;19.27;;
40204;SDS011;26963;42.666;23.366;2024-01-11T04:53:44;34.27;;;19.03;;
40204;SDS011;26963;42.666;23.366;2024-01-11T04:56:10;32.00;;;18.50;;
40204;SDS011;26963;42.666;23.366;2024-01-11T04:58:40;31.73;;;18.40;;
40204;SDS011;26963;42.666;23.366;2024-01-11T05:01:07;29.10;;;17.07;;
40204;SDS011;26963;42.666;23.366;2024-01-11T05:03:40;33.03;;;18.77;;
40204;SDS011;26963;42.666;23.366;2024-01-11T05:06:06;33.47;;;20.87;;
40204;SDS011;26963;42.666;23.366;2024-01-11T05:08:31;42.23;;;22.83;;
40204;SDS011;26963;42.666;23.366;2024-01-11T05:10:57;38.37;;;23.67;;
40204;SDS011;26963;42.666;23.366;2024-01-11T05:13:22;47.80;;;26.73;;
40204;SDS011;26963;42.666;23.366;2024-01-11T05:15:48;50.43;;;27.07;;
40204;SDS011;26963;42.666;23.366;2024-01-11T05:18:14;52.50;;;29.77;;
40204;SDS011;26963;42.666;23.366;2024-01-11T05:20:39;49.53;;;30.10;;
40204;SDS011;26963;42.666;23.366;2024-01-11T05:23:05;45.60;;;27.90;;
40204;SDS011;26963;42.666;23.366;2024-01-11T05:25:31;53.40;;;29.33;;
40204;SDS011;26963;42.666;23.366;2024-01-11T05:28:02;45.80;;;27.73;;
40204;SDS011;26963;42.666;23.366;2024-01-11T05:30:28;44.93;;;26.20;;
40204;SDS011;26963;42.666;23.366;2024-01-11T05:32:54;49.40;;;28.20;;
40204;SDS011;26963;42.666;23.366;2024-01-11T05:35:20;43.47;;;26.83;;
40204;SDS011;26963;42.666;23.366;2024-01-11T05:37:49;43.00;;;25.23;;
40204;SDS011;26963;42.666;23.366;2024-01-11T05:40:15;49.40;;;27.87;;
40204;SDS011;26963;42.666;23.366;2024-01-11T05:42:41;49.23;;;26.87;;
40204;SDS011;26963;42.666;23.366;2024-01-11T05:45:06;49.50;;;29.13;;
40204;SDS011;26963;42.666;23.366;2024-01-11T05:47:32;46.23;;;27.63;;
40204;SDS011;26963;42.666;23.366;2024-01-11T05:49:58;45.50;;;26.23;;
40204;SDS011;26963;42.666;23.366;2024-01-11T05:52:23;47.93;;;29.93;;
40204;SDS011;26963;42.666;23.366;2024-01-11T05:54:49;51.53;;;30.23;;
40204;SDS011;26963;42.666;23.366;2024-01-11T05:57:15;60.77;;;34.77;;
40204;SDS011;26963;42.666;23.366;2024-01-11T05:59:44;71.13;;;41.73;;
40204;SDS011;26963;42.666;23.366;2024-01-11T06:02:11;82.40;;;45.90;;
40204;SDS011;26963;42.666;23.366;2024-01-11T06:04:37;84.43;;;46.43;;
40204;SDS011;26963;42.666;23.366;2024-01-11T06:07:02;86.27;;;49.07;;
40204;SDS011;26963;42.666;23.366;2024-01-11T06:09:28;69.63;;;38.40;;
40204;SDS011;26963;42.666;23.366;2024-01-11T06:11:53;135.00;;;67.17;;
40204;SDS011;26963;42.666;23.366;2024-01-11T06:14:19;63.93;;;39.13;;
40204;SDS011;26963;42.666;23.366;2024-01-11T06:16:45;56.57;;;35.03;;
40204;SDS011;26963;42.666;23.366;2024-01-11T06:19:10;59.70;;;35.77;;
40204;SDS011;26963;42.666;23.366;2024-01-11T06:21:36;60.93;;;34.67;;
40204;SDS011;26963;42.666;23.366;2024-01-11T06:24:02;63.43;;;36.97;;
40204;SDS011;26963;42.666;23.366;2024-01-11T06:26:28;66.40;;;36.43;;
40204;SDS011;26963;42.666;23.366;2024-01-11T06:28:55;60.07;;;36.30;;
40204;SDS011;26963;42.666;23.366;2024-01-11T06:31:21;60.93;;;35.50;;
40204;SDS011;26963;42.666;23.366;2024-01-11T06:33:46;64.70;;;39.63;;
40204;SDS011;26963;42.666;23.366;2024-01-11T06:36:12;67.40;;;39.43;;
40204;SDS011;26963;42.666;23.366;2024-01-11T06:38:37;70.20;;;37.67;;
40204;SDS011;26963;42.666;23.366;2024-01-11T06:41:03;65.73;;;40.23;;
40204;SDS011;26963;42.666;23.366;2024-01-11T06:43:29;69.53;;;40.53;;
40204;SDS011;26963;42.666;23.366;2024-01-11T06:45:54;84.17;;;50.47;;
40204;SDS011;26963;42.666;23.366;2024-01-11T06:48:20;84.17;;;50.97;;
40204;SDS011;26963;42.666;23.366;2024-01-11T06:50:45;78.80;;;46.23;;
40204;SDS011;26963;42.666;23.366;2024-01-11T06:53:11;83.10;;;51.00;;
40204;SDS011;26963;42.666;23.366;2024-01-11T06:55:37;87.47;;;51.73;;
40204;SDS011;26963;42.666;23.366;2024-01-11T06:58:03;82.47;;;51.57;;
40204;SDS011;26963;42.666;23.366;2024-01-11T07:00:28;89.60;;;53.03;;
40204;SDS011;26963;42.666;23.366;2024-01-11T07:02:54;82.40;;;49.80;;
40204;SDS011;26963;42.666;23.366;2024-01-11T07:05:20;75.80;;;44.83;;
40204;SDS011;26963;42.666;23.366;2024-01-11T07:07:45;80.40;;;47.13;;
40204;SDS011;26963;42.666;23.366;2024-01-11T07:10:11;74.30;;;44.97;;
40204;SDS011;26963;42.666;23.366;2024-01-11T07:12:37;69.27;;;41.57;;
40204;SDS011;26963;42.666;23.366;2024-01-11T07:15:04;62.83;;;39.63;;
40204;SDS011;26963;42.666;23.366;2024-01-11T07:17:30;64.53;;;38.80;;
40204;SDS011;26963;42.666;23.366;2024-01-11T07:19:56;66.93;;;38.57;;
40204;SDS011;26963;42.666;23.366;2024-01-11T07:22:21;64.67;;;39.13;;
40204;SDS011;26963;42.666;23.366;2024-01-11T07:24:47;62.27;;;37.70;;
40204;SDS011;26963;42.666;23.366;2024-01-11T07:27:12;61.00;;;38.07;;
40204;SDS011;26963;42.666;23.366;2024-01-11T07:29:38;61.87;;;37.63;;
40204;SDS011;26963;42.666;23.366;2024-01-11T07:32:04;64.57;;;38.80;;
40204;SDS011;26963;42.666;23.366;2024-01-11T07:34:30;59.63;;;37.03;;
40204;SDS011;26963;42.666;23.366;2024-01-11T07:36:55;56.13;;;34.70;;
40204;SDS011;26963;42.666;23.366;2024-01-11T07:39:24;66.10;;;37.90;;
40204;SDS011;26963;42.666;23.366;2024-01-11T07:41:49;61.90;;;37.23;;
40204;SDS011;26963;42.666;23.366;2024-01-11T07:44:15;63.80;;;39.20;;
40204;SDS011;26963;42.666;23.366;2024-01-11T07:46:40;59.07;;;37.53;;
40204;SDS011;26963;42.666;23.366;2024-01-11T07:49:06;60.03;;;37.83;;
40204;SDS011;26963;42.666;23.366;2024-01-11T07:51:32;60.87;;;37.70;;
40204;SDS011;26963;42.666;23.366;2024-01-11T07:53:59;65.97;;;40.20;;
40204;SDS011;26963;42.666;23.366;2024-01-11T07:56:25;58.57;;;37.00;;
40204;SDS011;26963;42.666;23.366;2024-01-11T07:58:51;55.07;;;35.67;;
40204;SDS011;26963;42.666;23.366;2024-01-11T08:01:17;53.17;;;32.27;;
40204;SDS011;26963;42.666;23.366;2024-01-11T08:03:42;56.43;;;35.13;;
40204;SDS011;26963;42.666;23.366;2024-01-11T08:06:10;50.97;;;32.13;;
40204;SDS011;26963;42.666;23.366;2024-01-11T08:08:37;47.93;;;31.63;;
40204;SDS011;26963;42.666;23.366;2024-01-11T08:11:04;46.97;;;30.30;;
40204;SDS011;26963;42.666;23.366;2024-01-11T08:13:32;42.33;;;27.37;;
40204;SDS011;26963;42.666;23.366;2024-01-11T08:16:03;41.67;;;28.73;;
40204;SDS011;26963;42.666;23.366;2024-01-11T08:18:32;41.10;;;27.10;;
40204;SDS011;26963;42.666;23.366;2024-01-11T08:20:58;41.77;;;27.40;;
40204;SDS011;26963;42.666;23.366;2024-01-11T08:23:24;47.10;;;27.83;;
40204;SDS011;26963;42.666;23.366;2024-01-11T08:25:49;39.30;;;25.53;;
40204;SDS011;26963;42.666;23.366;2024-01-11T08:28:15;38.07;;;24.77;;
40204;SDS011;26963;42.666;23.366;2024-01-11T08:30:40;41.20;;;25.77;;
40204;SDS011;26963;42.666;23.366;2024-01-11T08:33:07;41.90;;;27.23;;
40204;SDS011;26963;42.666;23.366;2024-01-11T08:35:33;42.17;;;27.83;;
40204;SDS011;26963;42.666;23.366;2024-01-11T08:37:59;37.13;;;25.60;;
40204;SDS011;26963;42.666;23.366;2024-01-11T08:40:24;41.13;;;26.53;;
40204;SDS011;26963;42.666;23.366;2024-01-11T08:42:50;43.00;;;28.47;;
40204;SDS011;26963;42.666;23.366;2024-01-11T08:45:16;41.73;;;28.20;;
40204;SDS011;26963;42.666;23.366;2024-01-11T08:47:45;42.83;;;27.07;;
40204;SDS011;26963;42.666;23.366;2024-01-11T08:50:15;44.70;;;28.63;;
40204;SDS011;26963;42.666;23.366;2024-01-11T08:52:41;41.93;;;27.57;;
40204;SDS011;26963;42.666;23.366;2024-01-11T08:55:07;42.83;;;28.40;;
40204;SDS011;26963;42.666;23.366;2024-01-11T08:57:33;43.97;;;29.70;;
40204;SDS011;26963;42.666;23.366;2024-01-11T09:00:04;46.03;;;28.93;;
40204;SDS011;26963;42.666;23.366;2024-01-11T09:02:31;40.67;;;27.20;;
40204;SDS011;26963;42.666;23.366;2024-01-11T09:04:57;39.40;;;28.33;;
40204;SDS011;26963;42.666;23.366;2024-01-11T09:07:23;45.27;;;27.57;;
40204;SDS011;26963;42.666;23.366;2024-01-11T09:09:48;42.47;;;29.00;;
40204;SDS011;26963;42.666;23.366;2024-01-11T09:12:14;47.40;;;28.77;;
40204;SDS011;26963;42.666;23.366;2024-01-11T09:14:39;45.45;;;28.30;;
40204;SDS011;26963;42.666;23.366;2024-01-11T09:17:05;42.17;;;28.13;;
40204;SDS011;26963;42.666;23.366;2024-01-11T09:19:32;46.08;;;27.67;;
40204;SDS011;26963;42.666;23.366;2024-01-11T09:21:59;38.75;;;27.00;;
40204;SDS011;26963;42.666;23.366;2024-01-11T09:24:24;43.38;;;27.52;;
40204;SDS011;26963;42.666;23.366;2024-01-11T09:26:50;39.10;;;27.65;;
40204;SDS011;26963;42.666;23.366;2024-01-11T09:29:16;35.67;;;26.60;;
40204;SDS011;26963;42.666;23.366;2024-01-11T09:31:42;37.70;;;25.77;;
40204;SDS011;26963;42.666;23.366;2024-01-11T09:34:07;37.80;;;25.88;;
40204;SDS011;26963;42.666;23.366;2024-01-11T09:36:33;37.60;;;24.77;;
40204;SDS011;26963;42.666;23.366;2024-01-11T09:38:59;40.50;;;27.17;;
40204;SDS011;26963;42.666;23.366;2024-01-11T09:41:24;40.70;;;27.75;;
40204;SDS011;26963;42.666;23.366;2024-01-11T09:43:51;39.70;;;27.17;;
40204;SDS011;26963;42.666;23.366;2024-01-11T09:46:19;39.10;;;27.60;;
40204;SDS011;26963;42.666;23.366;2024-01-11T09:48:46;43.15;;;27.98;;
40204;SDS011;26963;42.666;23.366;2024-01-11T09:51:13;36.92;;;26.75;;
40204;SDS011;26963;42.666;23.366;2024-01-11T09:53:39;38.78;;;26.50;;
40204;SDS011;26963;42.666;23.366;2024-01-11T09:56:08;44.05;;;29.23;;
40204;SDS011;26963;42.666;23.366;2024-01-11T09:58:35;43.25;;;27.77;;
40204;SDS011;26963;42.666;23.366;2024-01-11T10:01:06;43.95;;;28.48;;
40204;SDS011;26963;42.666;23.366;2024-01-11T10:03:34;41.85;;;28.58;;
40204;SDS011;26963;42.666;23.366;2024-01-11T10:06:00;39.70;;;26.75;;
40204;SDS011;26963;42.666;23.366;2024-01-11T10:08:27;40.35;;;28.20;;
40204;SDS011;26963;42.666;23.366;2024-01-11T10:10:55;41.78;;;28.90;;
40204;SDS011;26963;42.666;23.366;2024-01-11T10:13:27;42.38;;;28.67;;
40204;SDS011;26963;42.666;23.366;2024-01-11T10:16:04;38.55;;;27.02;;
40204;SDS011;26963;42.666;23.366;2024-01-11T10:18:31;39.50;;;28.02;;
40204;SDS011;26963;42.666;23.366;2024-01-11T10:20:57;43.08;;;27.25;;
40204;SDS011;26963;42.666;23.366;2024-01-11T10:23:22;42.22;;;29.30;;
40204;SDS011;26963;42.666;23.366;2024-01-11T10:25:48;44.05;;;28.92;;
40204;SDS011;26963;42.666;23.366;2024-01-11T10:28:14;40.95;;;28.77;;
40204;SDS011;26963;42.666;23.366;2024-01-11T10:30:41;43.15;;;29.27;;
40204;SDS011;26963;42.666;23.366;2024-01-11T10:33:06;39.30;;;28.30;;
40204;SDS011;26963;42.666;23.366;2024-01-11T10:35:33;43.40;;;29.50;;
40204;SDS011;26963;42.666;23.366;2024-01-11T10:38:00;42.92;;;28.83;;
40204;SDS011;26963;42.666;23.366;2024-01-11T10:42:59;47.42;;;32.22;;
40204;SDS011;26963;42.666;23.366;2024-01-11T10:45:26;51.80;;;32.87;;
40204;SDS011;26963;42.666;23.366;2024-01-11T10:47:54;50.58;;;33.88;;
40204;SDS011;26963;42.666;23.366;2024-01-11T10:50:35;46.58;;;33.53;;
40204;SDS011;26963;42.666;23.366;2024-01-11T10:56:08;51.67;;;33.30;;
40204;SDS011;26963;42.666;23.366;2024-01-11T10:58:39;46.60;;;33.47;;
40204;SDS011;26963;42.666;23.366;2024-01-11T11:01:06;52.13;;;35.13;;
40204;SDS011;26963;42.666;23.366;2024-01-11T11:03:33;65.43;;;35.87;;
40204;SDS011;26963;42.666;23.366;2024-01-11T11:06:00;51.93;;;35.13;;
40204;SDS011;26963;42.666;23.366;2024-01-11T11:08:27;52.10;;;36.43;;
40204;SDS011;26963;42.666;23.366;2024-01-11T11:10:56;51.73;;;35.60;;
40204;SDS011;26963;42.666;23.366;2024-01-11T11:13:23;51.50;;;36.47;;
40204;SDS011;26963;42.666;23.366;2024-01-11T11:15:49;54.03;;;34.80;;
40204;SDS011;26963;42.666;23.366;2024-01-11T11:18:16;48.83;;;34.30;;
40204;SDS011;26963;42.666;23.366;2024-01-11T11:20:43;49.27;;;33.27;;
40204;SDS011;26963;42.666;23.366;2024-01-11T11:23:10;45.80;;;31.87;;
40204;SDS011;26963;42.666;23.366;2024-01-11T11:25:39;49.40;;;32.83;;
40204;SDS011;26963;42.666;23.366;2024-01-11T11:28:06;48.30;;;32.17;;
40204;SDS011;26963;42.666;23.366;2024-01-11T11:30:32;49.47;;;30.47;;
40204;SDS011;26963;42.666;23.366;2024-01-11T11:33:11;42.97;;;29.70;;
40204;SDS011;26963;42.666;23.366;2024-01-11T11:35:48;50.50;;;31.45;;
40204;SDS011;26963;42.666;23.366;2024-01-11T11:38:21;48.60;;;32.03;;
40204;SDS011;26963;42.666;23.366;2024-01-11T11:40:48;46.43;;;31.60;;
40204;SDS011;26963;42.666;23.366;2024-01-11T11:43:17;49.60;;;31.33;;
40204;SDS011;26963;42.666;23.366;2024-01-11T11:45:44;83.22;;;48.45;;
40204;SDS011;26963;42.666;23.366;2024-01-11T11:51:13;46.00;;;32.17;;
40204;SDS011;26963;42.666;23.366;2024-01-11T11:53:41;47.95;;;31.65;;
40204;SDS011;26963;42.666;23.366;2024-01-11T11:56:08;42.80;;;31.15;;
40204;SDS011;26963;42.666;23.366;2024-01-11T11:58:35;48.13;;;32.88;;
40204;SDS011;26963;42.666;23.366;2024-01-11T12:01:02;44.22;;;30.55;;
40204;SDS011;26963;42.666;23.366;2024-01-11T12:03:29;43.33;;;29.02;;
40204;SDS011;26963;42.666;23.366;2024-01-11T12:06:03;41.47;;;29.23;;
40204;SDS011;26963;42.666;23.366;2024-01-11T12:08:30;47.33;;;29.48;;
40204;SDS011;26963;42.666;23.366;2024-01-11T12:10:56;48.00;;;30.52;;
40204;SDS011;26963;42.666;23.366;2024-01-11T12:13:22;41.42;;;28.27;;
40204;SDS011;26963;42.666;23.366;2024-01-11T12:15:49;36.70;;;26.25;;
40204;SDS011;26963;42.666;23.366;2024-01-11T12:18:15;38.70;;;26.58;;
40204;SDS011;26963;42.666;23.366;2024-01-11T12:20:40;40.97;;;25.13;;
40204;SDS011;26963;42.666;23.366;2024-01-11T12:23:06;38.45;;;25.83;;
40204;SDS011;26963;42.666;23.366;2024-01-11T12:25:32;39.05;;;26.63;;
40204;SDS011;26963;42.666;23.366;2024-01-11T12:27:58;38.85;;;26.20;;
40204;SDS011;26963;42.666;23.366;2024-01-11T12:30:25;38.90;;;25.73;;
40204;SDS011;26963;42.666;23.366;2024-01-11T12:32:52;33.97;;;24.63;;
40204;SDS011;26963;42.666;23.366;2024-01-11T12:35:19;36.42;;;24.23;;
40204;SDS011;26963;42.666;23.366;2024-01-11T12:40:21;32.92;;;22.88;;
40204;SDS011;26963;42.666;23.366;2024-01-11T12:42:47;30.85;;;23.92;;
40204;SDS011;26963;42.666;23.366;2024-01-11T12:45:17;37.58;;;23.05;;
40204;SDS011;26963;42.666;23.366;2024-01-11T12:47:44;29.73;;;20.05;;
40204;SDS011;26963;42.666;23.366;2024-01-11T12:50:09;23.05;;;15.82;;
40204;SDS011;26963;42.666;23.366;2024-01-11T12:52:37;25.20;;;16.35;;
40204;SDS011;26963;42.666;23.366;2024-01-11T12:55:04;26.20;;;17.38;;
40204;SDS011;26963;42.666;23.366;2024-01-11T12:57:33;19.20;;;13.48;;
40204;SDS011;26963;42.666;23.366;2024-01-11T13:00:12;24.45;;;12.52;;
40204;SDS011;26963;42.666;23.366;2024-01-11T13:02:42;28.40;;;17.77;;
40204;SDS011;26963;42.666;23.366;2024-01-11T13:05:11;25.85;;;18.65;;
40204;SDS011;26963;42.666;23.366;2024-01-11T13:07:37;26.77;;;17.17;;
40204;SDS011;26963;42.666;23.366;2024-01-11T13:10:03;24.30;;;16.73;;
40204;SDS011;26963;42.666;23.366;2024-01-11T13:12:30;25.17;;;17.02;;
40204;SDS011;26963;42.666;23.366;2024-01-11T13:14:56;29.45;;;17.08;;
40204;SDS011;26963;42.666;23.366;2024-01-11T13:17:22;13.75;;;9.07;;
40204;SDS011;26963;42.666;23.366;2024-01-11T13:19:47;12.68;;;7.97;;
40204;SDS011;26963;42.666;23.366;2024-01-11T13:22:13;13.43;;;7.07;;
40204;SDS011;26963;42.666;23.366;2024-01-11T13:24:39;10.35;;;6.32;;
40204;SDS011;26963;42.666;23.366;2024-01-11T13:27:04;10.68;;;6.45;;
40204;SDS011;26963;42.666;23.366;2024-01-11T13:29:30;11.45;;;6.45;;
40204;SDS011;26963;42.666;23.366;2024-01-11T13:31:55;9.52;;;6.07;;
40204;SDS011;26963;42.666;23.366;2024-01-11T13:34:21;9.98;;;5.75;;
40204;SDS011;26963;42.666;23.366;2024-01-11T13:36:47;8.93;;;6.30;;
40204;SDS011;26963;42.666;23.366;2024-01-11T13:39:12;12.15;;;5.30;;
40204;SDS011;26963;42.666;23.366;2024-01-11T13:41:38;7.05;;;4.38;;
40204;SDS011;26963;42.666;23.366;2024-01-11T13:44:06;8.27;;;5.30;;
40204;SDS011;26963;42.666;23.366;2024-01-11T13:46:32;8.70;;;4.55;;
40204;SDS011;26963;42.666;23.366;2024-01-11T13:48:58;6.20;;;4.20;;
40204;SDS011;26963;42.666;23.366;2024-01-11T13:51:24;7.88;;;4.57;;
40204;SDS011;26963;42.666;23.366;2024-01-11T13:53:49;7.18;;;4.63;;
40204;SDS011;26963;42.666;23.366;2024-01-11T13:56:15;10.48;;;4.80;;
40204;SDS011;26963;42.666;23.366;2024-01-11T13:58:41;7.50;;;4.57;;
40204;SDS011;26963;42.666;23.366;2024-01-11T14:01:10;8.82;;;5.30;;
40204;SDS011;26963;42.666;23.366;2024-01-11T14:03:36;8.65;;;4.82;;
40204;SDS011;26963;42.666;23.366;2024-01-11T14:06:04;6.70;;;4.45;;
40204;SDS011;26963;42.666;23.366;2024-01-11T14:08:30;7.72;;;5.00;;
40204;SDS011;26963;42.666;23.366;2024-01-11T14:10:55;9.35;;;5.72;;
40204;SDS011;26963;42.666;23.366;2024-01-11T14:13:21;8.10;;;5.30;;
40204;SDS011;26963;42.666;23.366;2024-01-11T14:15:47;7.75;;;5.32;;
40204;SDS011;26963;42.666;23.366;2024-01-11T14:18:13;8.50;;;4.90;;